createdAt,value
2018-12-01T00:03:55.856Z,6.80
2018-12-01T00:08:32.258Z,6.80
2018-12-01T00:13:08.621Z,6.70
2018-12-01T00:17:45.017Z,6.60
2018-12-01T00:22:21.392Z,6.60
2018-12-01T00:26:57.769Z,6.90
2018-12-01T00:31:34.137Z,6.90
2018-12-01T00:36:10.524Z,6.80
2018-12-01T00:40:46.894Z,7.00
2018-12-01T00:45:24.305Z,6.90
2018-12-01T00:50:00.683Z,6.90
2018-12-01T00:54:37.060Z,6.80
2018-12-01T00:59:13.427Z,7.00
2018-12-01T01:03:49.823Z,6.90
2018-12-01T01:08:26.181Z,6.90
2018-12-01T01:13:02.570Z,6.80
2018-12-01T01:17:38.964Z,6.80
2018-12-01T01:22:15.346Z,6.80
2018-12-01T01:26:51.739Z,6.90
2018-12-01T01:31:28.146Z,6.80
2018-12-01T01:36:04.509Z,6.80
2018-12-01T01:40:40.925Z,6.90
2018-12-01T01:45:21.005Z,6.80
2018-12-01T01:49:57.402Z,6.90
2018-12-01T01:54:33.766Z,7.00
2018-12-01T01:59:10.151Z,6.90
2018-12-01T02:03:46.650Z,7.00
2018-12-01T02:08:23.033Z,6.90
2018-12-01T02:12:59.410Z,6.90
2018-12-01T02:17:35.913Z,6.80
2018-12-01T02:22:12.289Z,6.80
2018-12-01T02:26:48.677Z,6.90
2018-12-01T02:31:25.041Z,6.80
2018-12-01T02:36:01.434Z,6.90
2018-12-01T02:40:37.808Z,7.00
2018-12-01T02:45:49.869Z,6.80
2018-12-01T02:50:29.935Z,6.90
2018-12-01T02:55:06.758Z,6.90
2018-12-01T02:59:43.127Z,6.80
2018-12-01T03:04:19.513Z,6.70
2018-12-01T03:08:55.882Z,6.90
2018-12-01T03:13:32.267Z,6.70
2018-12-01T03:18:13.498Z,6.70
2018-12-01T03:22:46.657Z,6.70
2018-12-01T03:27:23.819Z,6.80
2018-12-01T03:32:00.210Z,6.80
2018-12-01T03:36:36.666Z,7.00
2018-12-01T03:41:13.050Z,7.00
2018-12-01T03:45:49.413Z,6.80
2018-12-01T03:50:26.466Z,6.80
2018-12-01T03:55:02.833Z,6.80
2018-12-01T03:59:39.221Z,7.00
2018-12-01T04:04:15.585Z,7.10
2018-12-01T04:08:51.969Z,6.90
2018-12-01T04:13:28.336Z,6.80
2018-12-01T04:18:04.734Z,6.90
2018-12-01T04:22:41.140Z,6.80
2018-12-01T04:27:17.526Z,6.80
2018-12-01T04:31:53.893Z,6.90
2018-12-01T04:36:30.278Z,6.80
2018-12-01T04:41:06.966Z,6.90
2018-12-01T04:45:43.661Z,6.90
2018-12-01T04:50:20.525Z,6.80
2018-12-01T04:54:56.938Z,6.90
2018-12-01T04:59:33.294Z,6.80
2018-12-01T05:04:09.677Z,6.70
2018-12-01T05:08:46.051Z,6.60
2018-12-01T05:13:22.437Z,6.60
2018-12-01T05:17:58.802Z,6.60
2018-12-01T05:22:35.201Z,6.60
2018-12-01T05:27:11.593Z,6.60
2018-12-01T05:31:48.003Z,6.70
2018-12-01T05:36:24.458Z,6.60
2018-12-01T05:41:00.837Z,6.60
2018-12-01T05:45:37.209Z,6.80
2018-12-01T05:50:15.585Z,6.70
2018-12-01T05:54:51.948Z,6.80
2018-12-01T05:59:28.339Z,6.70
2018-12-01T06:04:04.705Z,6.70
2018-12-01T06:08:41.098Z,6.70
2018-12-01T06:13:17.462Z,6.70
2018-12-01T06:17:53.856Z,6.70
2018-12-01T06:22:30.226Z,6.70
2018-12-01T06:27:06.625Z,6.80
2018-12-01T06:31:43.043Z,6.70
2018-12-01T06:36:19.447Z,6.60
2018-12-01T06:40:55.815Z,6.60
2018-12-01T06:45:32.204Z,6.70
2018-12-01T06:50:21.121Z,6.60
2018-12-01T06:54:57.505Z,6.60
2018-12-01T06:59:33.884Z,6.70
2018-12-01T07:04:10.350Z,6.60
2018-12-01T07:08:46.714Z,6.60
2018-12-01T07:13:23.110Z,6.60
2018-12-01T07:17:59.478Z,6.60
2018-12-01T07:22:35.878Z,6.40
2018-12-01T07:27:15.011Z,6.30
2018-12-01T07:31:51.406Z,6.30
2018-12-01T07:36:27.782Z,6.20
2018-12-01T07:41:05.248Z,6.20
2018-12-01T07:45:41.606Z,6.20
2018-12-01T07:50:19.234Z,6.20
2018-12-01T07:54:55.637Z,6.30
2018-12-01T07:59:32.035Z,6.40
2018-12-01T08:04:08.705Z,6.40
2018-12-01T08:08:45.114Z,6.50
2018-12-01T08:13:21.538Z,6.50
2018-12-01T08:17:57.933Z,6.50
2018-12-01T08:22:34.385Z,6.50
2018-12-01T08:27:10.774Z,6.60
2018-12-01T08:31:47.241Z,6.60
2018-12-01T08:36:23.631Z,6.60
2018-12-01T08:40:59.994Z,6.70
2018-12-01T08:45:36.391Z,6.80
2018-12-01T08:50:17.545Z,6.90
2018-12-01T08:54:53.936Z,7.00
2018-12-01T08:59:30.290Z,7.00
2018-12-01T09:04:06.689Z,7.20
2018-12-01T09:08:43.058Z,7.20
2018-12-01T09:13:19.458Z,7.20
2018-12-01T09:17:55.822Z,7.20
2018-12-01T09:22:32.206Z,7.10
2018-12-01T09:27:08.658Z,7.20
2018-12-01T09:31:45.090Z,7.30
2018-12-01T09:36:21.483Z,7.40
2018-12-01T09:40:58.094Z,7.50
2018-12-01T09:45:34.466Z,7.60
2018-12-01T09:50:12.530Z,7.70
2018-12-01T09:54:48.933Z,7.70
2018-12-01T09:59:25.335Z,7.80
2018-12-01T10:04:01.713Z,7.80
2018-12-01T10:08:38.184Z,7.80
2018-12-01T10:13:14.549Z,8.00
2018-12-01T10:17:50.934Z,7.90
2018-12-01T10:22:27.314Z,7.80
2018-12-01T10:27:03.706Z,7.60
2018-12-01T10:31:40.075Z,7.60
2018-12-01T10:36:16.475Z,7.60
2018-12-01T10:40:52.841Z,7.70
2018-12-01T10:45:29.226Z,7.80
2018-12-01T10:50:07.272Z,8.10
2018-12-01T10:54:43.677Z,8.20
2018-12-01T10:59:20.045Z,8.40
2018-12-01T11:03:56.429Z,8.40
2018-12-01T11:08:32.801Z,8.20
2018-12-01T11:13:09.185Z,8.10
2018-12-01T11:17:45.550Z,8.10
2018-12-01T11:22:21.939Z,8.00
2018-12-01T11:26:58.314Z,8.10
2018-12-01T11:31:34.718Z,8.00
2018-12-01T11:36:11.442Z,7.80
2018-12-01T11:40:47.925Z,7.60
2018-12-01T11:45:24.294Z,7.60
2018-12-01T11:50:00.686Z,7.60
2018-12-01T11:54:37.058Z,7.60
2018-12-01T11:59:13.454Z,7.70
2018-12-01T12:03:49.825Z,7.70
2018-12-01T12:08:27.995Z,7.80
2018-12-01T12:13:04.361Z,7.80
2018-12-01T12:17:41.686Z,7.80
2018-12-01T12:22:18.053Z,7.90
2018-12-01T12:26:54.433Z,7.90
2018-12-01T12:31:31.145Z,8.00
2018-12-01T12:36:07.906Z,8.10
2018-12-01T12:40:44.304Z,8.30
2018-12-01T12:45:20.702Z,8.30
2018-12-01T12:49:57.079Z,8.40
2018-12-01T12:54:33.549Z,8.40
2018-12-01T12:59:09.931Z,8.60
2018-12-01T13:03:46.579Z,8.80
2018-12-01T13:08:22.977Z,8.90
2018-12-01T13:12:59.418Z,9.00
2018-12-01T13:17:35.793Z,9.10
2018-12-01T13:22:12.206Z,9.30
2018-12-01T13:26:48.579Z,9.50
2018-12-01T13:31:25.270Z,9.50
2018-12-01T13:36:01.701Z,9.50
2018-12-01T13:40:38.662Z,9.50
2018-12-01T13:45:16.329Z,9.70
2018-12-01T13:49:52.721Z,9.60
2018-12-01T13:54:29.169Z,9.60
2018-12-01T13:59:06.500Z,9.60
2018-12-01T14:03:42.838Z,9.70
2018-12-01T14:08:19.244Z,9.70
2018-12-01T14:13:15.195Z,9.80
2018-12-01T14:17:51.619Z,9.80
2018-12-01T14:22:27.982Z,9.60
2018-12-01T14:27:04.402Z,9.40
2018-12-01T14:31:40.778Z,9.10
2018-12-01T14:36:17.169Z,9.00
2018-12-01T14:40:53.579Z,9.00
2018-12-01T14:45:30.015Z,8.90
2018-12-01T14:50:09.095Z,8.90
2018-12-01T14:54:45.481Z,8.80
2018-12-01T14:59:21.832Z,8.80
2018-12-01T15:03:58.219Z,8.70
2018-12-01T15:08:34.642Z,8.70
2018-12-01T15:13:11.046Z,8.60
2018-12-01T15:17:47.414Z,8.50
2018-12-01T15:22:23.811Z,8.50
2018-12-01T15:27:00.186Z,8.40
2018-12-01T15:31:36.577Z,8.30
2018-12-01T15:36:12.958Z,8.30
2018-12-01T15:40:53.393Z,8.10
2018-12-01T15:45:29.763Z,8.00
2018-12-01T15:50:09.118Z,8.00
2018-12-01T15:54:45.489Z,7.90
2018-12-01T15:59:21.874Z,7.80
2018-12-01T16:03:58.234Z,7.80
2018-12-01T16:08:35.574Z,7.70
2018-12-01T16:13:20.114Z,7.50
2018-12-01T16:17:56.513Z,7.50
2018-12-01T16:22:32.877Z,7.40
2018-12-01T16:27:09.274Z,7.30
2018-12-01T16:31:45.675Z,7.10
2018-12-01T16:36:22.120Z,7.00
2018-12-01T16:41:07.807Z,7.00
2018-12-01T16:45:45.626Z,6.90
2018-12-01T16:50:21.981Z,6.80
2018-12-01T16:54:58.377Z,6.80
2018-12-01T16:59:34.753Z,6.80
2018-12-01T17:04:11.134Z,6.80
2018-12-01T17:08:47.914Z,6.80
2018-12-01T17:13:24.293Z,6.90
2018-12-01T17:18:00.677Z,6.90
2018-12-01T17:22:37.106Z,6.90
2018-12-01T17:27:13.482Z,6.80
2018-12-01T17:31:49.959Z,6.90
2018-12-01T17:36:26.362Z,7.00
2018-12-01T17:41:29.303Z,7.00
2018-12-01T17:46:06.178Z,7.00
2018-12-01T17:50:42.570Z,6.90
2018-12-01T17:55:19.275Z,6.80
2018-12-01T17:59:55.682Z,6.70
2018-12-01T18:04:32.049Z,6.80
2018-12-01T18:09:10.245Z,6.80
2018-12-01T18:13:46.610Z,6.90
2018-12-01T18:18:22.999Z,6.90
2018-12-01T18:23:00.897Z,6.90
2018-12-01T18:27:37.808Z,7.00
2018-12-01T18:32:14.165Z,6.90
2018-12-01T18:36:50.621Z,6.70
2018-12-01T18:41:27.000Z,6.70
2018-12-01T18:46:05.413Z,6.70
2018-12-01T18:50:41.766Z,6.70
2018-12-01T18:55:18.189Z,6.60
2018-12-01T18:59:54.569Z,6.60
2018-12-01T19:04:30.960Z,6.60
2018-12-01T19:09:09.085Z,6.60
2018-12-01T19:13:45.474Z,6.60
2018-12-01T19:18:21.842Z,6.50
2018-12-01T19:22:59.025Z,6.50
2018-12-01T19:27:35.403Z,6.50
2018-12-01T19:32:11.781Z,6.60
2018-12-01T19:36:48.142Z,6.70
2018-12-01T19:41:24.567Z,6.70
2018-12-01T19:46:00.926Z,6.70
2018-12-01T19:50:41.633Z,6.60
2018-12-01T19:55:18.815Z,6.60
2018-12-01T19:59:55.192Z,6.50
2018-12-01T20:04:31.552Z,6.50
2018-12-01T20:09:09.430Z,6.50
2018-12-01T20:13:46.681Z,6.60
2018-12-01T20:18:24.795Z,6.60
2018-12-01T20:23:01.162Z,6.60
2018-12-01T20:27:37.546Z,6.60
2018-12-01T20:32:13.922Z,6.50
2018-12-01T20:36:53.653Z,6.60
2018-12-01T20:41:30.042Z,6.70
2018-12-01T20:46:06.550Z,6.80
2018-12-01T20:50:43.282Z,6.90
2018-12-01T20:55:22.217Z,7.00
2018-12-01T20:59:58.914Z,7.20
2018-12-01T21:04:35.405Z,7.30
2018-12-01T21:09:12.176Z,7.40
2018-12-01T21:13:48.573Z,7.50
2018-12-01T21:18:24.948Z,7.50
2018-12-01T21:23:01.348Z,7.60
2018-12-01T21:27:37.782Z,7.60
2018-12-01T21:32:14.157Z,7.60
2018-12-01T21:36:50.525Z,7.60
2018-12-01T21:41:27.590Z,7.70
2018-12-01T21:46:04.658Z,7.80
2018-12-01T21:50:42.451Z,7.90
2018-12-01T21:55:18.921Z,7.90
2018-12-01T21:59:55.415Z,7.90
2018-12-01T22:04:31.841Z,7.90
2018-12-01T22:09:09.841Z,8.00
2018-12-01T22:13:46.505Z,7.90
2018-12-01T22:18:23.909Z,8.00
2018-12-01T22:23:00.282Z,8.00
2018-12-01T22:27:36.679Z,8.00
2018-12-01T22:32:13.033Z,8.00
2018-12-01T22:36:49.476Z,8.00
2018-12-01T22:41:25.965Z,8.00
2018-12-01T22:46:03.793Z,8.10
2018-12-01T22:50:41.842Z,8.10
2018-12-01T22:55:20.520Z,8.10
2018-12-01T22:59:56.934Z,8.10
2018-12-01T23:04:33.314Z,8.10
2018-12-01T23:09:09.675Z,8.10
2018-12-01T23:13:46.058Z,8.20
2018-12-01T23:18:24.182Z,8.30
2018-12-01T23:23:00.557Z,8.40
2018-12-01T23:27:37.969Z,8.40
2018-12-01T23:32:15.129Z,8.50
2018-12-01T23:36:51.610Z,8.60
2018-12-01T23:41:28.285Z,8.60
2018-12-01T23:46:05.310Z,8.60
2018-12-01T23:50:43.782Z,8.60
2018-12-01T23:55:20.146Z,8.70
2018-12-01T23:59:56.535Z,8.70
